sensor_id;sensor_type;location;lat;lon;timestamp;P1;durP1;ratioP1;P2;durP2;ratioP2
42760;SDS011;31672;47.638;19.026;2023-07-24T00:04:07;4.85;;;3.03;;
42760;SDS011;31672;47.638;19.026;2023-07-24T00:09:10;4.70;;;2.90;;
42760;SDS011;31672;47.638;19.026;2023-07-24T00:14:15;5.40;;;3.53;;
42760;SDS011;31672;47.638;19.026;2023-07-24T00:19:19;5.65;;;3.13;;
42760;SDS011;31672;47.638;19.026;2023-07-24T00:24:22;3.92;;;3.00;;
42760;SDS011;31672;47.638;19.026;2023-07-24T00:29:26;3.53;;;3.00;;
42760;SDS011;31672;47.638;19.026;2023-07-24T00:34:30;4.50;;;3.25;;
42760;SDS011;31672;47.638;19.026;2023-07-24T00:39:33;5.72;;;4.07;;
42760;SDS011;31672;47.638;19.026;2023-07-24T00:44:37;5.55;;;3.60;;
42760;SDS011;31672;47.638;19.026;2023-07-24T00:49:40;5.05;;;3.65;;
42760;SDS011;31672;47.638;19.026;2023-07-24T00:54:44;4.50;;;3.30;;
42760;SDS011;31672;47.638;19.026;2023-07-24T00:59:49;4.07;;;3.10;;
42760;SDS011;31672;47.638;19.026;2023-07-24T01:04:53;5.75;;;3.97;;
42760;SDS011;31672;47.638;19.026;2023-07-24T01:09:57;4.05;;;3.25;;
42760;SDS011;31672;47.638;19.026;2023-07-24T01:15:12;3.63;;;2.67;;
42760;SDS011;31672;47.638;19.026;2023-07-24T01:20:38;4.35;;;2.90;;
42760;SDS011;31672;47.638;19.026;2023-07-24T01:25:56;5.10;;;3.10;;
42760;SDS011;31672;47.638;19.026;2023-07-24T01:31:02;3.42;;;2.83;;
42760;SDS011;31672;47.638;19.026;2023-07-24T01:36:05;4.10;;;3.15;;
42760;SDS011;31672;47.638;19.026;2023-07-24T01:41:10;4.60;;;3.35;;
42760;SDS011;31672;47.638;19.026;2023-07-24T01:46:14;4.30;;;3.33;;
42760;SDS011;31672;47.638;19.026;2023-07-24T01:51:18;5.93;;;3.88;;
42760;SDS011;31672;47.638;19.026;2023-07-24T01:56:21;4.95;;;3.45;;
42760;SDS011;31672;47.638;19.026;2023-07-24T02:01:25;4.90;;;4.03;;
42760;SDS011;31672;47.638;19.026;2023-07-24T02:06:28;4.90;;;4.10;;
42760;SDS011;31672;47.638;19.026;2023-07-24T02:11:32;4.93;;;3.53;;
42760;SDS011;31672;47.638;19.026;2023-07-24T02:16:36;4.97;;;3.70;;
42760;SDS011;31672;47.638;19.026;2023-07-24T02:21:40;4.45;;;3.85;;
42760;SDS011;31672;47.638;19.026;2023-07-24T02:26:43;5.68;;;3.60;;
42760;SDS011;31672;47.638;19.026;2023-07-24T02:31:47;5.22;;;3.80;;
42760;SDS011;31672;47.638;19.026;2023-07-24T02:36:52;5.15;;;3.83;;
42760;SDS011;31672;47.638;19.026;2023-07-24T02:41:56;4.43;;;3.50;;
42760;SDS011;31672;47.638;19.026;2023-07-24T02:47:00;7.13;;;5.65;;
42760;SDS011;31672;47.638;19.026;2023-07-24T02:52:04;5.65;;;3.67;;
42760;SDS011;31672;47.638;19.026;2023-07-24T02:57:08;7.32;;;4.63;;
42760;SDS011;31672;47.638;19.026;2023-07-24T03:02:12;5.35;;;4.32;;
42760;SDS011;31672;47.638;19.026;2023-07-24T03:07:15;5.63;;;4.43;;
42760;SDS011;31672;47.638;19.026;2023-07-24T03:12:19;5.43;;;4.15;;
42760;SDS011;31672;47.638;19.026;2023-07-24T03:17:23;5.22;;;4.05;;
42760;SDS011;31672;47.638;19.026;2023-07-24T03:22:26;6.57;;;4.00;;
42760;SDS011;31672;47.638;19.026;2023-07-24T03:27:30;6.10;;;4.07;;
42760;SDS011;31672;47.638;19.026;2023-07-24T03:32:36;6.72;;;4.20;;
42760;SDS011;31672;47.638;19.026;2023-07-24T03:37:40;5.88;;;4.25;;
42760;SDS011;31672;47.638;19.026;2023-07-24T03:42:44;8.85;;;5.50;;
42760;SDS011;31672;47.638;19.026;2023-07-24T03:47:48;6.03;;;4.80;;
42760;SDS011;31672;47.638;19.026;2023-07-24T03:52:51;6.88;;;4.43;;
42760;SDS011;31672;47.638;19.026;2023-07-24T03:57:55;6.78;;;4.90;;
42760;SDS011;31672;47.638;19.026;2023-07-24T04:02:58;5.80;;;4.60;;
42760;SDS011;31672;47.638;19.026;2023-07-24T04:08:02;7.57;;;4.90;;
42760;SDS011;31672;47.638;19.026;2023-07-24T04:13:07;5.82;;;4.60;;
42760;SDS011;31672;47.638;19.026;2023-07-24T04:18:10;6.30;;;4.53;;
42760;SDS011;31672;47.638;19.026;2023-07-24T04:23:14;8.48;;;4.60;;
42760;SDS011;31672;47.638;19.026;2023-07-24T04:28:17;6.20;;;5.28;;
42760;SDS011;31672;47.638;19.026;2023-07-24T04:33:21;5.45;;;4.30;;
42760;SDS011;31672;47.638;19.026;2023-07-24T04:38:25;5.38;;;4.55;;
42760;SDS011;31672;47.638;19.026;2023-07-24T04:43:29;7.97;;;4.88;;
42760;SDS011;31672;47.638;19.026;2023-07-24T04:48:33;6.65;;;5.00;;
42760;SDS011;31672;47.638;19.026;2023-07-24T04:53:36;8.32;;;5.57;;
42760;SDS011;31672;47.638;19.026;2023-07-24T04:58:40;7.45;;;5.90;;
42760;SDS011;31672;47.638;19.026;2023-07-24T05:03:43;7.80;;;4.80;;
42760;SDS011;31672;47.638;19.026;2023-07-24T05:08:47;7.43;;;5.45;;
42760;SDS011;31672;47.638;19.026;2023-07-24T05:13:50;7.43;;;5.57;;
42760;SDS011;31672;47.638;19.026;2023-07-24T05:18:54;7.05;;;5.38;;
42760;SDS011;31672;47.638;19.026;2023-07-24T05:23:57;6.60;;;5.72;;
42760;SDS011;31672;47.638;19.026;2023-07-24T05:29:01;7.70;;;6.00;;
42760;SDS011;31672;47.638;19.026;2023-07-24T05:34:04;9.07;;;6.25;;
42760;SDS011;31672;47.638;19.026;2023-07-24T05:39:08;10.77;;;6.57;;
42760;SDS011;31672;47.638;19.026;2023-07-24T05:44:11;9.07;;;6.03;;
42760;SDS011;31672;47.638;19.026;2023-07-24T05:49:15;6.40;;;5.47;;
42760;SDS011;31672;47.638;19.026;2023-07-24T05:54:18;9.00;;;6.22;;
42760;SDS011;31672;47.638;19.026;2023-07-24T05:59:22;8.05;;;5.70;;
42760;SDS011;31672;47.638;19.026;2023-07-24T06:04:25;8.50;;;6.05;;
42760;SDS011;31672;47.638;19.026;2023-07-24T06:09:29;7.20;;;5.43;;
42760;SDS011;31672;47.638;19.026;2023-07-24T06:14:33;9.73;;;6.13;;
42760;SDS011;31672;47.638;19.026;2023-07-24T06:19:36;6.57;;;5.88;;
42760;SDS011;31672;47.638;19.026;2023-07-24T06:24:40;6.03;;;5.22;;
42760;SDS011;31672;47.638;19.026;2023-07-24T06:29:43;12.05;;;6.47;;
42760;SDS011;31672;47.638;19.026;2023-07-24T06:34:47;8.23;;;6.68;;
42760;SDS011;31672;47.638;19.026;2023-07-24T06:39:51;7.85;;;6.15;;
42760;SDS011;31672;47.638;19.026;2023-07-24T06:44:54;11.57;;;6.88;;
42760;SDS011;31672;47.638;19.026;2023-07-24T06:49:58;6.93;;;5.70;;
42760;SDS011;31672;47.638;19.026;2023-07-24T06:55:01;6.13;;;5.30;;
42760;SDS011;31672;47.638;19.026;2023-07-24T07:00:06;7.70;;;6.10;;
42760;SDS011;31672;47.638;19.026;2023-07-24T07:05:14;9.98;;;6.72;;
42760;SDS011;31672;47.638;19.026;2023-07-24T07:10:17;8.05;;;6.65;;
42760;SDS011;31672;47.638;19.026;2023-07-24T07:15:21;10.65;;;7.50;;
42760;SDS011;31672;47.638;19.026;2023-07-24T07:20:24;8.77;;;5.95;;
42760;SDS011;31672;47.638;19.026;2023-07-24T07:25:28;7.38;;;6.53;;
42760;SDS011;31672;47.638;19.026;2023-07-24T07:30:31;10.95;;;6.95;;
42760;SDS011;31672;47.638;19.026;2023-07-24T07:35:35;9.77;;;6.10;;
42760;SDS011;31672;47.638;19.026;2023-07-24T07:40:39;9.13;;;7.40;;
42760;SDS011;31672;47.638;19.026;2023-07-24T07:45:43;12.10;;;7.35;;
42760;SDS011;31672;47.638;19.026;2023-07-24T07:50:49;9.75;;;7.07;;
42760;SDS011;31672;47.638;19.026;2023-07-24T07:55:55;8.60;;;6.78;;
42760;SDS011;31672;47.638;19.026;2023-07-24T08:01:03;9.02;;;7.00;;
42760;SDS011;31672;47.638;19.026;2023-07-24T08:06:09;13.77;;;7.75;;
42760;SDS011;31672;47.638;19.026;2023-07-24T08:11:14;9.68;;;7.38;;
42760;SDS011;31672;47.638;19.026;2023-07-24T08:16:17;9.75;;;8.45;;
42760;SDS011;31672;47.638;19.026;2023-07-24T08:21:22;11.60;;;7.85;;
42760;SDS011;31672;47.638;19.026;2023-07-24T08:26:25;8.63;;;6.60;;
42760;SDS011;31672;47.638;19.026;2023-07-24T08:31:30;8.50;;;6.18;;
42760;SDS011;31672;47.638;19.026;2023-07-24T08:36:34;11.75;;;6.95;;
42760;SDS011;31672;47.638;19.026;2023-07-24T08:41:37;8.48;;;6.63;;
42760;SDS011;31672;47.638;19.026;2023-07-24T08:46:41;11.68;;;7.10;;
42760;SDS011;31672;47.638;19.026;2023-07-24T08:51:49;9.32;;;6.70;;
42760;SDS011;31672;47.638;19.026;2023-07-24T08:56:52;10.88;;;6.20;;
42760;SDS011;31672;47.638;19.026;2023-07-24T09:01:58;9.70;;;6.10;;
42760;SDS011;31672;47.638;19.026;2023-07-24T09:07:01;12.02;;;6.80;;
42760;SDS011;31672;47.638;19.026;2023-07-24T09:12:05;11.52;;;6.47;;
42760;SDS011;31672;47.638;19.026;2023-07-24T09:17:10;12.43;;;7.22;;
42760;SDS011;31672;47.638;19.026;2023-07-24T09:22:14;7.47;;;6.45;;
42760;SDS011;31672;47.638;19.026;2023-07-24T09:27:23;10.55;;;6.72;;
42760;SDS011;31672;47.638;19.026;2023-07-24T09:32:30;11.10;;;7.38;;
42760;SDS011;31672;47.638;19.026;2023-07-24T09:37:35;10.30;;;7.00;;
42760;SDS011;31672;47.638;19.026;2023-07-24T09:42:38;12.40;;;7.03;;
42760;SDS011;31672;47.638;19.026;2023-07-24T09:48:05;9.10;;;7.00;;
42760;SDS011;31672;47.638;19.026;2023-07-24T09:53:37;11.75;;;7.57;;
42760;SDS011;31672;47.638;19.026;2023-07-24T09:58:51;10.07;;;7.57;;
42760;SDS011;31672;47.638;19.026;2023-07-24T10:03:58;8.60;;;7.03;;
42760;SDS011;31672;47.638;19.026;2023-07-24T10:09:03;14.00;;;8.93;;
42760;SDS011;31672;47.638;19.026;2023-07-24T10:14:09;12.23;;;8.43;;
42760;SDS011;31672;47.638;19.026;2023-07-24T10:19:16;8.93;;;7.20;;
42760;SDS011;31672;47.638;19.026;2023-07-24T10:24:20;11.05;;;8.25;;
42760;SDS011;31672;47.638;19.026;2023-07-24T10:29:43;13.88;;;8.70;;
42760;SDS011;31672;47.638;19.026;2023-07-24T10:34:57;10.07;;;7.72;;
42760;SDS011;31672;47.638;19.026;2023-07-24T10:40:20;10.40;;;8.25;;
42760;SDS011;31672;47.638;19.026;2023-07-24T10:45:25;12.48;;;8.95;;
42760;SDS011;31672;47.638;19.026;2023-07-24T10:50:35;11.50;;;8.27;;
42760;SDS011;31672;47.638;19.026;2023-07-24T10:55:41;14.15;;;9.38;;
42760;SDS011;31672;47.638;19.026;2023-07-24T11:00:46;13.70;;;9.10;;
42760;SDS011;31672;47.638;19.026;2023-07-24T11:05:52;13.57;;;8.88;;
42760;SDS011;31672;47.638;19.026;2023-07-24T11:10:57;12.15;;;9.25;;
42760;SDS011;31672;47.638;19.026;2023-07-24T11:16:06;10.90;;;8.40;;
42760;SDS011;31672;47.638;19.026;2023-07-24T11:21:12;13.48;;;10.18;;
42760;SDS011;31672;47.638;19.026;2023-07-24T11:26:18;13.20;;;8.63;;
42760;SDS011;31672;47.638;19.026;2023-07-24T11:31:35;13.50;;;8.55;;
42760;SDS011;31672;47.638;19.026;2023-07-24T11:36:41;13.80;;;9.02;;
42760;SDS011;31672;47.638;19.026;2023-07-24T11:41:45;10.55;;;7.93;;
42760;SDS011;31672;47.638;19.026;2023-07-24T11:46:49;12.75;;;8.80;;
42760;SDS011;31672;47.638;19.026;2023-07-24T11:51:52;13.50;;;8.23;;
42760;SDS011;31672;47.638;19.026;2023-07-24T11:57:02;9.85;;;7.63;;
42760;SDS011;31672;47.638;19.026;2023-07-24T12:02:17;11.43;;;8.00;;
42760;SDS011;31672;47.638;19.026;2023-07-24T12:07:22;12.02;;;8.15;;
42760;SDS011;31672;47.638;19.026;2023-07-24T12:12:42;9.27;;;7.57;;
42760;SDS011;31672;47.638;19.026;2023-07-24T12:17:49;9.63;;;7.57;;
42760;SDS011;31672;47.638;19.026;2023-07-24T12:22:52;11.20;;;8.27;;
42760;SDS011;31672;47.638;19.026;2023-07-24T12:27:57;11.98;;;8.13;;
42760;SDS011;31672;47.638;19.026;2023-07-24T12:33:01;8.93;;;7.13;;
42760;SDS011;31672;47.638;19.026;2023-07-24T12:38:05;8.95;;;7.03;;
42760;SDS011;31672;47.638;19.026;2023-07-24T12:43:09;9.75;;;7.90;;
42760;SDS011;31672;47.638;19.026;2023-07-24T12:48:13;10.13;;;7.25;;
42760;SDS011;31672;47.638;19.026;2023-07-24T12:53:16;10.68;;;7.35;;
42760;SDS011;31672;47.638;19.026;2023-07-24T12:58:27;8.18;;;6.90;;
42760;SDS011;31672;47.638;19.026;2023-07-24T13:03:30;7.93;;;6.78;;
42760;SDS011;31672;47.638;19.026;2023-07-24T13:08:34;12.55;;;6.68;;
42760;SDS011;31672;47.638;19.026;2023-07-24T13:13:38;11.75;;;6.78;;
42760;SDS011;31672;47.638;19.026;2023-07-24T13:18:41;9.95;;;6.93;;
42760;SDS011;31672;47.638;19.026;2023-07-24T13:23:45;9.50;;;6.55;;
42760;SDS011;31672;47.638;19.026;2023-07-24T13:28:49;8.10;;;6.60;;
42760;SDS011;31672;47.638;19.026;2023-07-24T13:33:53;8.95;;;6.35;;
42760;SDS011;31672;47.638;19.026;2023-07-24T13:38:56;6.78;;;6.07;;
42760;SDS011;31672;47.638;19.026;2023-07-24T13:44:00;7.78;;;6.68;;
42760;SDS011;31672;47.638;19.026;2023-07-24T13:49:03;8.10;;;6.78;;
42760;SDS011;31672;47.638;19.026;2023-07-24T13:54:07;8.80;;;7.32;;
42760;SDS011;31672;47.638;19.026;2023-07-24T13:59:11;10.07;;;8.10;;
42760;SDS011;31672;47.638;19.026;2023-07-24T14:04:14;13.57;;;9.50;;
42760;SDS011;31672;47.638;19.026;2023-07-24T14:09:18;12.50;;;10.10;;
42760;SDS011;31672;47.638;19.026;2023-07-24T14:14:22;12.75;;;9.55;;
42760;SDS011;31672;47.638;19.026;2023-07-24T14:19:27;11.10;;;9.55;;
42760;SDS011;31672;47.638;19.026;2023-07-24T14:24:31;11.65;;;9.43;;
42760;SDS011;31672;47.638;19.026;2023-07-24T14:29:35;14.65;;;9.93;;
42760;SDS011;31672;47.638;19.026;2023-07-24T14:34:38;15.73;;;10.10;;
42760;SDS011;31672;47.638;19.026;2023-07-24T14:39:46;11.90;;;9.80;;
42760;SDS011;31672;47.638;19.026;2023-07-24T14:44:49;14.57;;;10.05;;
42760;SDS011;31672;47.638;19.026;2023-07-24T14:49:53;12.55;;;9.38;;
42760;SDS011;31672;47.638;19.026;2023-07-24T14:54:57;13.13;;;9.82;;
42760;SDS011;31672;47.638;19.026;2023-07-24T15:00:00;12.68;;;10.25;;
42760;SDS011;31672;47.638;19.026;2023-07-24T15:05:05;13.98;;;10.23;;
42760;SDS011;31672;47.638;19.026;2023-07-24T15:10:08;15.07;;;9.55;;
42760;SDS011;31672;47.638;19.026;2023-07-24T15:15:13;17.90;;;9.82;;
42760;SDS011;31672;47.638;19.026;2023-07-24T15:20:16;14.07;;;9.85;;
42760;SDS011;31672;47.638;19.026;2023-07-24T15:25:20;12.55;;;9.60;;
42760;SDS011;31672;47.638;19.026;2023-07-24T15:30:24;12.68;;;9.65;;
42760;SDS011;31672;47.638;19.026;2023-07-24T15:35:28;13.90;;;9.57;;
42760;SDS011;31672;47.638;19.026;2023-07-24T15:40:32;14.63;;;9.70;;
42760;SDS011;31672;47.638;19.026;2023-07-24T15:45:36;13.15;;;8.90;;
42760;SDS011;31672;47.638;19.026;2023-07-24T15:50:40;11.57;;;9.88;;
42760;SDS011;31672;47.638;19.026;2023-07-24T15:55:44;13.27;;;9.27;;
42760;SDS011;31672;47.638;19.026;2023-07-24T16:00:47;15.23;;;9.27;;
42760;SDS011;31672;47.638;19.026;2023-07-24T16:05:52;12.90;;;9.27;;
42760;SDS011;31672;47.638;19.026;2023-07-24T16:10:56;12.18;;;9.93;;
42760;SDS011;31672;47.638;19.026;2023-07-24T16:16:00;12.23;;;9.00;;
42760;SDS011;31672;47.638;19.026;2023-07-24T16:21:04;11.77;;;9.35;;
42760;SDS011;31672;47.638;19.026;2023-07-24T16:26:08;16.70;;;10.23;;
42760;SDS011;31672;47.638;19.026;2023-07-24T16:31:11;14.40;;;9.63;;
42760;SDS011;31672;47.638;19.026;2023-07-24T16:36:15;12.75;;;8.93;;
42760;SDS011;31672;47.638;19.026;2023-07-24T16:41:18;15.95;;;9.98;;
42760;SDS011;31672;47.638;19.026;2023-07-24T16:46:22;13.75;;;9.57;;
42760;SDS011;31672;47.638;19.026;2023-07-24T16:51:28;12.00;;;8.98;;
42760;SDS011;31672;47.638;19.026;2023-07-24T16:56:32;12.68;;;9.50;;
42760;SDS011;31672;47.638;19.026;2023-07-24T17:01:36;19.63;;;9.75;;
42760;SDS011;31672;47.638;19.026;2023-07-24T17:06:39;15.50;;;8.77;;
42760;SDS011;31672;47.638;19.026;2023-07-24T17:11:45;12.05;;;8.63;;
42760;SDS011;31672;47.638;19.026;2023-07-24T17:16:48;14.93;;;9.00;;
42760;SDS011;31672;47.638;19.026;2023-07-24T17:21:52;13.65;;;9.13;;
42760;SDS011;31672;47.638;19.026;2023-07-24T17:26:56;11.60;;;8.48;;
42760;SDS011;31672;47.638;19.026;2023-07-24T17:31:59;12.85;;;7.82;;
42760;SDS011;31672;47.638;19.026;2023-07-24T17:37:03;13.48;;;8.73;;
42760;SDS011;31672;47.638;19.026;2023-07-24T17:42:07;13.65;;;8.35;;
42760;SDS011;31672;47.638;19.026;2023-07-24T17:47:11;12.05;;;7.60;;
42760;SDS011;31672;47.638;19.026;2023-07-24T17:52:15;12.90;;;8.45;;
42760;SDS011;31672;47.638;19.026;2023-07-24T17:57:19;12.00;;;8.18;;
42760;SDS011;31672;47.638;19.026;2023-07-24T18:02:23;11.25;;;7.07;;
42760;SDS011;31672;47.638;19.026;2023-07-24T18:07:27;11.13;;;7.40;;
42760;SDS011;31672;47.638;19.026;2023-07-24T18:12:30;13.02;;;7.55;;
42760;SDS011;31672;47.638;19.026;2023-07-24T18:17:35;14.40;;;7.65;;
42760;SDS011;31672;47.638;19.026;2023-07-24T18:22:38;12.80;;;7.45;;
42760;SDS011;31672;47.638;19.026;2023-07-24T18:27:42;12.25;;;7.63;;
42760;SDS011;31672;47.638;19.026;2023-07-24T18:32:45;10.68;;;7.10;;
42760;SDS011;31672;47.638;19.026;2023-07-24T18:37:49;12.40;;;6.38;;
42760;SDS011;31672;47.638;19.026;2023-07-24T18:42:53;10.90;;;6.72;;
42760;SDS011;31672;47.638;19.026;2023-07-24T18:47:56;12.30;;;7.38;;
42760;SDS011;31672;47.638;19.026;2023-07-24T18:53:02;11.45;;;7.10;;
42760;SDS011;31672;47.638;19.026;2023-07-24T18:58:06;10.45;;;6.68;;
42760;SDS011;31672;47.638;19.026;2023-07-24T19:03:09;11.77;;;6.80;;
42760;SDS011;31672;47.638;19.026;2023-07-24T19:08:14;12.07;;;6.78;;
42760;SDS011;31672;47.638;19.026;2023-07-24T19:13:18;10.45;;;6.90;;
42760;SDS011;31672;47.638;19.026;2023-07-24T19:18:21;12.63;;;7.20;;
42760;SDS011;31672;47.638;19.026;2023-07-24T19:23:25;12.23;;;6.88;;
42760;SDS011;31672;47.638;19.026;2023-07-24T19:28:28;11.80;;;7.45;;
42760;SDS011;31672;47.638;19.026;2023-07-24T19:33:32;12.75;;;7.20;;
42760;SDS011;31672;47.638;19.026;2023-07-24T19:38:35;14.32;;;7.63;;
42760;SDS011;31672;47.638;19.026;2023-07-24T19:43:39;12.38;;;7.50;;
42760;SDS011;31672;47.638;19.026;2023-07-24T19:48:42;12.82;;;7.22;;
42760;SDS011;31672;47.638;19.026;2023-07-24T19:53:47;12.18;;;7.13;;
42760;SDS011;31672;47.638;19.026;2023-07-24T19:58:50;15.80;;;6.85;;
42760;SDS011;31672;47.638;19.026;2023-07-24T20:03:54;15.88;;;7.43;;
42760;SDS011;31672;47.638;19.026;2023-07-24T20:08:57;13.73;;;7.05;;
42760;SDS011;31672;47.638;19.026;2023-07-24T20:14:02;12.50;;;6.78;;
42760;SDS011;31672;47.638;19.026;2023-07-24T20:19:06;12.48;;;6.40;;
42760;SDS011;31672;47.638;19.026;2023-07-24T20:24:11;10.98;;;6.10;;
42760;SDS011;31672;47.638;19.026;2023-07-24T20:29:16;11.70;;;6.00;;
42760;SDS011;31672;47.638;19.026;2023-07-24T20:34:20;10.88;;;6.25;;
42760;SDS011;31672;47.638;19.026;2023-07-24T20:39:24;11.40;;;6.57;;
42760;SDS011;31672;47.638;19.026;2023-07-24T20:44:28;9.45;;;6.03;;
42760;SDS011;31672;47.638;19.026;2023-07-24T20:49:32;8.27;;;5.53;;
42760;SDS011;31672;47.638;19.026;2023-07-24T20:54:37;10.30;;;6.45;;
42760;SDS011;31672;47.638;19.026;2023-07-24T20:59:41;10.90;;;5.75;;
42760;SDS011;31672;47.638;19.026;2023-07-24T21:04:44;11.60;;;5.95;;
42760;SDS011;31672;47.638;19.026;2023-07-24T21:09:49;9.88;;;5.90;;
42760;SDS011;31672;47.638;19.026;2023-07-24T21:14:55;10.05;;;5.78;;
42760;SDS011;31672;47.638;19.026;2023-07-24T21:19:59;8.35;;;4.97;;
42760;SDS011;31672;47.638;19.026;2023-07-24T21:25:02;9.52;;;5.47;;
42760;SDS011;31672;47.638;19.026;2023-07-24T21:30:06;11.45;;;5.43;;
42760;SDS011;31672;47.638;19.026;2023-07-24T21:35:11;8.93;;;5.20;;
42760;SDS011;31672;47.638;19.026;2023-07-24T21:40:15;9.63;;;5.07;;
42760;SDS011;31672;47.638;19.026;2023-07-24T21:45:19;8.00;;;4.82;;
42760;SDS011;31672;47.638;19.026;2023-07-24T21:50:22;8.80;;;5.32;;
42760;SDS011;31672;47.638;19.026;2023-07-24T21:55:26;10.23;;;5.97;;
42760;SDS011;31672;47.638;19.026;2023-07-24T22:00:29;9.43;;;4.85;;
42760;SDS011;31672;47.638;19.026;2023-07-24T22:05:33;8.32;;;5.28;;
42760;SDS011;31672;47.638;19.026;2023-07-24T22:10:36;8.32;;;5.00;;
42760;SDS011;31672;47.638;19.026;2023-07-24T22:15:40;7.78;;;4.60;;
42760;SDS011;31672;47.638;19.026;2023-07-24T22:20:44;9.13;;;5.03;;
42760;SDS011;31672;47.638;19.026;2023-07-24T22:25:47;9.60;;;5.15;;
42760;SDS011;31672;47.638;19.026;2023-07-24T22:30:51;8.07;;;4.80;;
42760;SDS011;31672;47.638;19.026;2023-07-24T22:35:57;9.65;;;5.43;;
42760;SDS011;31672;47.638;19.026;2023-07-24T22:41:08;8.82;;;5.75;;
42760;SDS011;31672;47.638;19.026;2023-07-24T22:46:13;9.18;;;5.85;;
42760;SDS011;31672;47.638;19.026;2023-07-24T22:51:17;9.50;;;5.28;;
42760;SDS011;31672;47.638;19.026;2023-07-24T22:56:20;12.02;;;6.43;;
42760;SDS011;31672;47.638;19.026;2023-07-24T23:01:27;10.77;;;5.72;;
42760;SDS011;31672;47.638;19.026;2023-07-24T23:06:33;10.53;;;5.57;;
42760;SDS011;31672;47.638;19.026;2023-07-24T23:11:36;10.90;;;5.50;;
42760;SDS011;31672;47.638;19.026;2023-07-24T23:16:40;10.63;;;4.95;;
42760;SDS011;31672;47.638;19.026;2023-07-24T23:21:43;5.55;;;3.80;;
42760;SDS011;31672;47.638;19.026;2023-07-24T23:26:47;7.93;;;4.18;;
42760;SDS011;31672;47.638;19.026;2023-07-24T23:31:53;4.68;;;3.38;;
42760;SDS011;31672;47.638;19.026;2023-07-24T23:36:57;8.32;;;4.05;;
42760;SDS011;31672;47.638;19.026;2023-07-24T23:42:01;4.28;;;2.88;;
42760;SDS011;31672;47.638;19.026;2023-07-24T23:47:05;5.88;;;3.50;;
42760;SDS011;31672;47.638;19.026;2023-07-24T23:52:08;5.07;;;3.38;;
42760;SDS011;31672;47.638;19.026;2023-07-24T23:57:12;5.40;;;3.30;;
